createdAt,value
2018-09-21T00:00:39.033Z,85.20
2018-09-21T00:03:13.988Z,85.30
2018-09-21T00:05:49.061Z,85.20
2018-09-21T00:08:23.857Z,85.30
2018-09-21T00:10:58.469Z,85.30
2018-09-21T00:13:33.017Z,85.30
2018-09-21T00:16:07.729Z,85.40
2018-09-21T00:18:42.683Z,85.50
2018-09-21T00:21:17.550Z,85.60
2018-09-21T00:23:51.599Z,85.60
2018-09-21T00:26:26.273Z,85.60
2018-09-21T00:29:01.176Z,85.80
2018-09-21T00:31:35.589Z,85.70
2018-09-21T00:34:10.695Z,85.60
2018-09-21T00:36:46.054Z,85.70
2018-09-21T00:39:20.263Z,85.70
2018-09-21T00:41:54.936Z,86.30
2018-09-21T00:44:30.025Z,85.80
2018-09-21T00:47:04.880Z,85.80
2018-09-21T00:49:39.689Z,85.80
2018-09-21T00:52:14.195Z,85.80
2018-09-21T00:54:49.153Z,85.80
2018-09-21T00:57:24.166Z,85.80
2018-09-21T00:59:58.741Z,85.80
2018-09-21T01:02:33.420Z,85.80
2018-09-21T01:05:07.901Z,85.60
2018-09-21T01:07:42.973Z,85.60
2018-09-21T01:10:18.064Z,85.60
2018-09-21T01:12:52.275Z,85.50
2018-09-21T01:15:27.041Z,85.60
2018-09-21T01:18:01.976Z,85.60
2018-09-21T01:20:37.010Z,85.60
2018-09-21T01:23:12.077Z,85.60
2018-09-21T01:25:46.517Z,85.50
2018-09-21T01:28:21.184Z,85.60
2018-09-21T01:30:55.897Z,85.60
2018-09-21T01:33:31.155Z,85.60
2018-09-21T01:36:05.395Z,85.50
2018-09-21T01:38:39.955Z,85.60
2018-09-21T01:41:14.572Z,85.60
2018-09-21T01:43:49.113Z,85.60
2018-09-21T01:46:24.045Z,85.60
2018-09-21T01:48:58.264Z,86.10
2018-09-21T01:51:32.910Z,85.60
2018-09-21T01:54:08.158Z,85.70
2018-09-21T01:56:42.473Z,85.70
2018-09-21T01:59:16.958Z,85.70
2018-09-21T02:01:51.532Z,85.80
2018-09-21T02:04:32.092Z,85.80
2018-09-21T02:07:09.249Z,85.80
2018-09-21T02:09:44.097Z,85.20
2018-09-21T02:12:18.244Z,85.80
2018-09-21T02:14:53.314Z,86.00
2018-09-21T02:17:27.654Z,85.90
2018-09-21T02:20:02.153Z,85.90
2018-09-21T02:22:37.686Z,85.90
2018-09-21T02:25:12.733Z,85.70
2018-09-21T02:27:47.345Z,85.70
2018-09-21T02:30:22.031Z,85.70
2018-09-21T02:32:56.665Z,85.80
2018-09-21T02:35:31.342Z,85.80
2018-09-21T02:38:06.110Z,85.80
2018-09-21T02:40:40.825Z,85.80
2018-09-21T02:43:15.605Z,85.80
2018-09-21T02:45:49.970Z,85.80
2018-09-21T02:48:24.781Z,85.80
2018-09-21T02:50:59.212Z,85.80
2018-09-21T02:53:33.853Z,86.00
2018-09-21T02:56:08.503Z,85.80
2018-09-21T02:58:43.582Z,86.50
2018-09-21T03:01:18.029Z,85.80
2018-09-21T03:03:52.532Z,85.80
2018-09-21T03:06:27.632Z,85.80
2018-09-21T03:09:01.848Z,85.80
2018-09-21T03:11:36.763Z,85.90
2018-09-21T03:14:11.432Z,85.90
2018-09-21T03:16:45.940Z,86.80
2018-09-21T03:19:20.548Z,86.10
2018-09-21T03:21:55.136Z,86.10
2018-09-21T03:24:30.127Z,86.10
2018-09-21T03:27:04.981Z,86.20
2018-09-21T03:29:39.766Z,86.30
2018-09-21T03:32:14.320Z,86.30
2018-09-21T03:34:48.573Z,86.40
2018-09-21T03:37:23.237Z,86.40
2018-09-21T03:39:57.804Z,86.40
2018-09-21T03:42:32.712Z,86.40
2018-09-21T03:45:07.040Z,86.30
2018-09-21T03:47:41.724Z,86.30
2018-09-21T03:50:16.407Z,86.50
2018-09-21T03:52:51.096Z,86.40
2018-09-21T03:55:25.971Z,86.70
2018-09-21T03:58:00.438Z,86.50
2018-09-21T04:00:35.194Z,86.30
2018-09-21T04:03:10.189Z,86.20
2018-09-21T04:05:44.509Z,87.00
2018-09-21T04:08:19.087Z,86.40
2018-09-21T04:10:53.517Z,86.40
2018-09-21T04:13:28.190Z,86.40
2018-09-21T04:16:02.729Z,86.40
2018-09-21T04:18:37.296Z,86.50
2018-09-21T04:21:11.818Z,86.30
2018-09-21T04:23:46.701Z,86.40
2018-09-21T04:26:21.436Z,86.40
2018-09-21T04:28:56.121Z,86.40
2018-09-21T04:31:30.982Z,86.40
2018-09-21T04:34:05.654Z,86.50
2018-09-21T04:36:40.485Z,86.50
2018-09-21T04:39:15.049Z,86.60
2018-09-21T04:41:49.773Z,86.70
2018-09-21T04:44:24.483Z,86.80
2018-09-21T04:46:58.919Z,86.80
2018-09-21T04:49:33.544Z,87.00
2018-09-21T04:52:08.174Z,87.10
2018-09-21T04:54:42.773Z,87.00
2018-09-21T04:57:17.385Z,87.00
2018-09-21T04:59:51.937Z,87.00
2018-09-21T05:02:26.814Z,87.00
2018-09-21T05:05:01.533Z,87.00
2018-09-21T05:07:36.016Z,87.10
2018-09-21T05:10:10.560Z,87.10
2018-09-21T05:12:46.034Z,87.30
2018-09-21T05:15:21.021Z,87.10
2018-09-21T05:17:55.532Z,87.20
2018-09-21T05:20:30.880Z,87.10
2018-09-21T05:23:05.806Z,87.10
2018-09-21T05:25:40.348Z,86.90
2018-09-21T05:28:15.220Z,86.80
2018-09-21T05:30:49.945Z,86.40
2018-09-21T05:33:25.015Z,86.20
2018-09-21T05:35:59.629Z,85.90
2018-09-21T05:38:34.349Z,86.00
2018-09-21T05:41:09.373Z,85.80
2018-09-21T05:43:44.028Z,85.70
2018-09-21T05:46:19.046Z,85.60
2018-09-21T05:48:53.605Z,85.40
2018-09-21T05:51:28.215Z,85.30
2018-09-21T05:54:02.977Z,85.00
2018-09-21T05:56:38.090Z,85.00
2018-09-21T05:59:13.184Z,84.80
2018-09-21T06:01:47.801Z,84.40
2018-09-21T06:04:22.468Z,84.20
2018-09-21T06:06:56.939Z,84.00
2018-09-21T06:09:31.663Z,83.70
2018-09-21T06:12:06.590Z,82.90
2018-09-21T06:14:41.014Z,82.50
2018-09-21T06:17:15.672Z,82.50
2018-09-21T06:19:50.474Z,82.50
2018-09-21T06:22:24.864Z,82.10
2018-09-21T06:24:59.510Z,82.10
2018-09-21T06:27:34.044Z,81.10
2018-09-21T06:30:09.460Z,80.60
2018-09-21T06:32:44.274Z,80.10
2018-09-21T06:35:19.034Z,78.60
2018-09-21T06:37:53.769Z,78.00
2018-09-21T06:49:52.968Z,74.60
2018-09-21T06:52:27.513Z,73.60
2018-09-21T06:55:07.457Z,73.40
2018-09-21T06:57:42.533Z,72.90
2018-09-21T07:00:17.586Z,72.30
2018-09-21T07:02:51.885Z,71.70
2018-09-21T07:05:26.809Z,71.20
2018-09-21T07:08:01.448Z,71.00
2018-09-21T07:10:36.082Z,69.90
2018-09-21T07:13:10.800Z,69.70
2018-09-21T07:15:45.994Z,69.40
2018-09-21T07:18:20.273Z,69.30
2018-09-21T07:20:55.281Z,68.00
2018-09-21T07:23:29.584Z,67.10
2018-09-21T07:26:04.549Z,65.60
2018-09-21T07:28:39.394Z,64.80
2018-09-21T07:31:14.628Z,64.40
2018-09-21T07:33:48.846Z,63.70
2018-09-21T07:36:24.026Z,63.00
2018-09-21T07:38:58.862Z,62.10
2018-09-21T07:41:33.789Z,61.10
2018-09-21T07:44:08.573Z,60.20
2018-09-21T07:46:43.421Z,60.00
2018-09-21T07:49:18.245Z,59.20
2018-09-21T07:51:53.072Z,58.70
2018-09-21T07:54:28.118Z,58.30
2018-09-21T07:57:02.718Z,58.10
2018-09-21T07:59:37.766Z,58.20
2018-09-21T08:02:12.221Z,57.00
2018-09-21T08:04:47.243Z,56.50
2018-09-21T08:07:22.101Z,56.00
2018-09-21T08:09:56.907Z,55.80
2018-09-21T08:12:31.672Z,55.20
2018-09-21T08:15:06.741Z,54.60
2018-09-21T08:17:41.394Z,54.80
2018-09-21T08:20:16.463Z,54.10
2018-09-21T08:22:50.905Z,53.40
2018-09-21T08:25:25.811Z,53.20
2018-09-21T08:28:00.187Z,53.20
2018-09-21T08:30:35.409Z,53.80
2018-09-21T08:33:10.286Z,53.40
2018-09-21T08:35:45.226Z,52.30
2018-09-21T08:38:20.238Z,52.00
2018-09-21T08:40:55.163Z,52.00
2018-09-21T08:43:29.462Z,51.50
2018-09-21T08:46:05.033Z,50.90
2018-09-21T08:48:39.782Z,50.20
2018-09-21T08:51:14.160Z,51.40
2018-09-21T08:53:49.221Z,51.20
2018-09-21T08:56:24.058Z,50.80
2018-09-21T08:58:58.835Z,51.10
2018-09-21T09:01:33.469Z,50.50
2018-09-21T09:04:08.301Z,50.60
2018-09-21T09:06:42.616Z,50.60
2018-09-21T09:09:17.313Z,50.80
2018-09-21T09:11:51.890Z,50.60
2018-09-21T09:14:26.542Z,50.10
2018-09-21T09:17:01.467Z,50.00
2018-09-21T09:19:36.070Z,49.10
2018-09-21T09:22:11.257Z,49.40
2018-09-21T09:24:45.795Z,49.00
2018-09-21T09:27:20.575Z,49.00
2018-09-21T09:29:55.605Z,49.50
2018-09-21T09:32:30.253Z,48.60
2018-09-21T09:35:05.450Z,49.40
2018-09-21T09:37:40.243Z,48.50
2018-09-21T09:40:14.831Z,48.00
2018-09-21T09:42:49.037Z,46.20
2018-09-21T09:45:23.989Z,45.60
2018-09-21T09:47:59.213Z,46.20
2018-09-21T09:50:34.187Z,46.20
2018-09-21T09:53:08.703Z,45.30
2018-09-21T09:55:43.711Z,44.80
2018-09-21T09:58:18.080Z,44.30
2018-09-21T10:00:53.644Z,44.60
2018-09-21T10:03:28.015Z,43.80
2018-09-21T10:06:02.287Z,43.30
2018-09-21T10:08:36.514Z,42.00
2018-09-21T10:11:10.935Z,40.40
2018-09-21T10:13:45.906Z,40.50
2018-09-21T10:16:20.254Z,40.50
2018-09-21T10:18:54.918Z,40.70
2018-09-21T10:21:29.055Z,41.30
2018-09-21T10:24:03.636Z,40.90
2018-09-21T10:26:38.447Z,42.80
2018-09-21T10:29:12.869Z,41.80
2018-09-21T10:31:47.513Z,41.10
2018-09-21T10:34:22.314Z,39.90
2018-09-21T10:36:56.959Z,40.40
2018-09-21T10:39:31.608Z,40.90
2018-09-21T10:42:06.351Z,42.00
2018-09-21T10:44:41.260Z,42.90
2018-09-21T10:47:17.309Z,43.50
2018-09-21T10:49:51.599Z,43.50
2018-09-21T10:52:26.652Z,43.20
2018-09-21T10:55:01.034Z,43.60
2018-09-21T10:57:36.034Z,44.00
2018-09-21T11:00:11.387Z,44.40
2018-09-21T11:02:45.450Z,43.80
2018-09-21T11:05:19.712Z,44.60
2018-09-21T11:07:54.269Z,45.20
2018-09-21T11:10:28.918Z,44.70
2018-09-21T11:13:03.120Z,45.10
2018-09-21T11:15:38.166Z,45.80
2018-09-21T11:18:13.172Z,45.90
2018-09-21T11:20:47.877Z,45.80
2018-09-21T11:23:22.692Z,47.40
2018-09-21T11:25:57.557Z,46.80
2018-09-21T11:28:32.164Z,48.20
2018-09-21T11:31:06.854Z,48.20
2018-09-21T11:33:41.446Z,48.10
2018-09-21T11:36:16.317Z,47.90
2018-09-21T11:38:50.926Z,48.10
2018-09-21T11:41:25.776Z,48.50
2018-09-21T11:44:00.277Z,47.80
2018-09-21T11:46:35.195Z,48.00
2018-09-21T11:49:10.160Z,48.30
2018-09-21T11:51:44.717Z,49.20
2018-09-21T11:54:19.529Z,48.70
2018-09-21T11:56:54.649Z,47.00
2018-09-21T11:59:29.656Z,47.80
2018-09-21T12:02:04.314Z,47.70
2018-09-21T12:04:39.242Z,48.10
2018-09-21T12:07:14.117Z,47.30
2018-09-21T12:09:49.175Z,47.80
2018-09-21T12:12:24.059Z,48.90
2018-09-21T12:14:59.145Z,47.80
2018-09-21T12:17:33.902Z,48.80
2018-09-21T12:20:08.982Z,47.90
2018-09-21T12:22:44.198Z,48.50
2018-09-21T12:25:19.131Z,47.20
2018-09-21T12:27:54.005Z,45.80
2018-09-21T12:30:28.314Z,46.00
2018-09-21T12:33:03.372Z,46.60
2018-09-21T12:35:38.279Z,46.50
2018-09-21T12:38:12.909Z,47.10
2018-09-21T12:40:47.641Z,47.00
2018-09-21T12:43:22.221Z,47.40
2018-09-21T12:45:56.821Z,47.10
2018-09-21T12:48:31.565Z,47.10
2018-09-21T12:51:06.353Z,45.00
2018-09-21T12:53:41.354Z,45.30
2018-09-21T12:56:15.628Z,45.60
2018-09-21T12:58:50.543Z,45.30
2018-09-21T13:01:25.045Z,44.30
2018-09-21T13:03:59.603Z,44.00
2018-09-21T13:06:34.508Z,43.60
2018-09-21T13:09:09.423Z,44.20
2018-09-21T13:11:44.494Z,44.70
2018-09-21T13:14:19.547Z,45.00
2018-09-21T13:16:54.530Z,44.10
2018-09-21T13:19:28.661Z,44.70
2018-09-21T13:22:05.317Z,45.00
2018-09-21T13:24:40.077Z,44.70
2018-09-21T13:27:14.412Z,44.70
2018-09-21T13:29:49.100Z,44.50
2018-09-21T13:32:23.473Z,44.20
2018-09-21T13:34:58.111Z,44.70
2018-09-21T13:37:32.306Z,43.10
2018-09-21T13:40:07.302Z,40.00
2018-09-21T13:42:42.174Z,40.30
2018-09-21T13:45:16.912Z,40.30
2018-09-21T13:47:52.457Z,40.90
2018-09-21T13:50:26.770Z,41.40
2018-09-21T13:53:01.475Z,39.80
2018-09-21T13:55:36.110Z,40.00
2018-09-21T13:58:10.947Z,40.80
2018-09-21T14:00:45.663Z,41.30
2018-09-21T14:03:20.560Z,41.70
2018-09-21T14:05:55.154Z,41.60
2018-09-21T14:08:30.085Z,42.30
2018-09-21T14:11:04.989Z,42.40
2018-09-21T14:13:39.677Z,42.70
2018-09-21T14:16:14.044Z,43.20
2018-09-21T14:18:49.269Z,43.70
2018-09-21T14:21:24.332Z,43.90
2018-09-21T14:23:58.933Z,44.10
2018-09-21T14:26:33.778Z,44.10
2018-09-21T14:29:08.909Z,44.10
2018-09-21T14:31:43.980Z,44.90
2018-09-21T14:34:18.830Z,45.40
2018-09-21T14:36:53.582Z,45.50
2018-09-21T14:39:27.664Z,45.40
2018-09-21T14:42:01.941Z,46.20
2018-09-21T14:44:37.612Z,46.90
2018-09-21T14:47:12.332Z,47.20
2018-09-21T14:49:47.177Z,47.40
2018-09-21T14:52:21.786Z,47.30
2018-09-21T14:54:56.321Z,47.20
2018-09-21T14:57:31.238Z,47.30
2018-09-21T15:00:06.256Z,47.60
2018-09-21T15:02:40.446Z,47.70
2018-09-21T15:05:15.086Z,47.80
2018-09-21T15:07:49.746Z,48.50
2018-09-21T15:10:24.568Z,48.10
2018-09-21T15:12:59.287Z,48.00
2018-09-21T15:15:34.007Z,48.60
2018-09-21T15:18:08.454Z,48.50
2018-09-21T15:20:43.185Z,49.10
2018-09-21T15:23:17.649Z,48.90
2018-09-21T15:25:52.434Z,48.30
2018-09-21T15:28:27.130Z,48.80
2018-09-21T15:31:02.113Z,49.00
2018-09-21T15:33:36.923Z,49.20
2018-09-21T15:36:11.259Z,49.60
2018-09-21T15:38:46.418Z,49.90
2018-09-21T15:41:21.420Z,50.00
2018-09-21T15:43:56.527Z,50.20
2018-09-21T15:46:31.562Z,50.30
2018-09-21T15:49:06.678Z,50.60
2018-09-21T15:51:41.118Z,51.10
2018-09-21T15:54:15.852Z,51.40
2018-09-21T15:56:51.057Z,51.50
2018-09-21T15:59:26.225Z,51.60
2018-09-21T16:02:00.865Z,52.00
2018-09-21T16:04:35.222Z,53.10
2018-09-21T16:07:09.800Z,52.30
2018-09-21T16:09:44.292Z,52.50
2018-09-21T16:12:18.989Z,52.60
2018-09-21T16:14:53.650Z,52.60
2018-09-21T16:17:28.541Z,52.50
2018-09-21T16:20:02.977Z,53.00
2018-09-21T16:22:37.534Z,53.40
2018-09-21T16:25:12.974Z,53.40
2018-09-21T16:27:47.876Z,53.80
2018-09-21T16:30:22.738Z,54.10
2018-09-21T16:32:57.816Z,54.00
2018-09-21T16:35:32.458Z,53.60
2018-09-21T16:38:07.715Z,53.90
2018-09-21T16:40:42.396Z,54.10
2018-09-21T16:43:17.294Z,54.40
2018-09-21T16:45:52.374Z,55.50
2018-09-21T16:48:27.158Z,54.90
2018-09-21T16:51:02.326Z,55.30
2018-09-21T16:53:38.635Z,55.40
2018-09-21T16:56:14.121Z,55.20
2018-09-21T16:58:48.879Z,55.30
2018-09-21T17:01:24.090Z,55.60
2018-09-21T17:03:59.041Z,55.80
2018-09-21T17:06:34.616Z,56.00
2018-09-21T17:09:11.412Z,56.50
2018-09-21T17:11:46.971Z,56.60
2018-09-21T17:14:22.231Z,56.50
2018-09-21T17:16:56.782Z,57.20
2018-09-21T17:19:31.841Z,57.20
2018-09-21T17:22:06.373Z,57.20
2018-09-21T17:24:41.397Z,56.70
2018-09-21T17:27:15.805Z,56.90
2018-09-21T17:29:50.653Z,57.10
2018-09-21T17:32:24.928Z,57.50
2018-09-21T17:34:59.891Z,58.60
2018-09-21T17:37:35.069Z,59.30
2018-09-21T17:40:09.555Z,59.90
2018-09-21T17:42:44.066Z,59.50
2018-09-21T17:45:18.723Z,59.10
2018-09-21T17:47:53.689Z,60.20
2018-09-21T17:50:28.413Z,60.00
2018-09-21T17:53:03.244Z,58.40
2018-09-21T17:55:38.672Z,58.40
2018-09-21T17:58:14.026Z,58.30
2018-09-21T18:00:48.567Z,58.80
2018-09-21T18:03:23.622Z,59.00
2018-09-21T18:05:59.008Z,59.20
2018-09-21T18:08:33.668Z,60.20
2018-09-21T18:11:08.644Z,60.70
2018-09-21T18:13:43.681Z,59.80
2018-09-21T18:16:25.412Z,60.20
2018-09-21T18:19:00.301Z,60.50
2018-09-21T18:21:34.994Z,60.60
2018-09-21T18:24:10.486Z,61.30
2018-09-21T18:26:45.031Z,61.40
2018-09-21T18:29:20.141Z,61.40
2018-09-21T18:31:55.269Z,61.20
2018-09-21T18:34:29.757Z,61.50
2018-09-21T18:37:04.649Z,61.40
2018-09-21T18:39:39.242Z,61.90
2018-09-21T18:42:13.891Z,61.80
2018-09-21T18:44:48.697Z,61.70
2018-09-21T18:47:23.206Z,62.10
2018-09-21T18:49:58.047Z,61.80
2018-09-21T18:52:32.644Z,61.70
2018-09-21T18:55:07.494Z,62.20
2018-09-21T18:57:42.278Z,62.10
2018-09-21T19:00:17.158Z,62.10
2018-09-21T19:02:51.847Z,63.00
2018-09-21T19:05:29.246Z,64.10
2018-09-21T19:08:04.121Z,65.10
2018-09-21T19:10:39.201Z,65.00
2018-09-21T19:13:13.505Z,65.40
2018-09-21T19:15:48.663Z,66.30
2018-09-21T19:18:24.019Z,67.20
2018-09-21T19:20:59.081Z,67.40
2018-09-21T19:23:33.804Z,67.60
2018-09-21T19:26:14.997Z,68.20
2018-09-21T19:28:50.194Z,68.60
2018-09-21T19:31:25.789Z,67.90
2018-09-21T19:34:00.354Z,67.90
2018-09-21T19:36:34.673Z,68.00
2018-09-21T19:39:10.733Z,68.10
2018-09-21T19:41:45.447Z,69.20
2018-09-21T19:44:21.037Z,69.00
2018-09-21T19:46:56.169Z,69.30
2018-09-21T19:49:31.874Z,71.60
2018-09-21T19:52:06.763Z,71.40
2018-09-21T19:54:41.636Z,72.50
2018-09-21T19:57:16.181Z,73.60
2018-09-21T19:59:51.137Z,74.60
2018-09-21T20:02:25.479Z,76.30
2018-09-21T20:05:00.456Z,76.60
2018-09-21T20:07:35.184Z,77.30
2018-09-21T20:10:10.129Z,77.10
2018-09-21T20:12:44.840Z,76.20
2018-09-21T20:15:19.385Z,76.20
2018-09-21T20:17:53.714Z,76.10
2018-09-21T20:20:28.808Z,76.80
2018-09-21T20:23:03.878Z,76.80
2018-09-21T20:25:39.138Z,76.60
2018-09-21T20:28:14.071Z,77.10
2018-09-21T20:30:54.850Z,77.50
2018-09-21T20:33:30.933Z,77.50
2018-09-21T20:36:05.986Z,78.70
2018-09-21T20:38:40.245Z,78.90
2018-09-21T20:41:15.087Z,78.80
2018-09-21T20:43:49.919Z,79.60
2018-09-21T20:46:24.246Z,78.00
2018-09-21T20:48:59.251Z,78.10
2018-09-21T20:51:33.527Z,78.40
2018-09-21T20:54:08.321Z,78.80
2018-09-21T20:56:46.227Z,79.10
2018-09-21T20:59:21.251Z,80.00
2018-09-21T21:01:56.116Z,80.00
2018-09-21T21:04:30.691Z,80.60
2018-09-21T21:07:05.845Z,81.50
2018-09-21T21:09:40.889Z,81.00
2018-09-21T21:12:15.685Z,81.40
2018-09-21T21:14:50.445Z,81.40
2018-09-21T21:17:26.220Z,82.50
2018-09-21T21:20:01.455Z,82.00
2018-09-21T21:22:35.857Z,82.00
2018-09-21T21:25:10.605Z,82.50
2018-09-21T21:27:45.411Z,82.30
2018-09-21T21:30:20.226Z,82.20
2018-09-21T21:32:55.358Z,83.00
2018-09-21T21:35:30.331Z,83.00
2018-09-21T21:38:05.525Z,83.40
2018-09-21T21:40:40.548Z,83.30
2018-09-21T21:43:15.183Z,83.40
2018-09-21T21:45:50.342Z,83.20
2018-09-21T21:48:25.447Z,83.90
2018-09-21T21:51:00.673Z,82.90
2018-09-21T21:53:34.882Z,82.50
2018-09-21T21:56:09.340Z,82.20
2018-09-21T21:58:44.408Z,82.10
2018-09-21T22:01:30.485Z,82.70
2018-09-21T22:04:05.735Z,83.00
2018-09-21T22:06:41.059Z,82.80
2018-09-21T22:09:15.518Z,82.40
2018-09-21T22:11:55.902Z,82.30
2018-09-21T22:14:30.940Z,82.80
2018-09-21T22:17:06.065Z,82.50
2018-09-21T22:19:40.345Z,82.20
2018-09-21T22:22:15.147Z,82.40
2018-09-21T22:24:49.807Z,82.50
2018-09-21T22:27:24.434Z,83.10
2018-09-21T22:29:59.245Z,82.50
2018-09-21T22:32:33.761Z,83.20
2018-09-21T22:35:08.457Z,82.70
2018-09-21T22:37:43.109Z,82.40
2018-09-21T22:40:17.825Z,82.50
2018-09-21T22:42:52.356Z,82.50
2018-09-21T22:45:27.418Z,82.90
2018-09-21T22:48:02.328Z,82.90
2018-09-21T22:50:37.606Z,82.80
2018-09-21T22:53:12.481Z,82.40
2018-09-21T22:55:47.431Z,82.60
2018-09-21T22:58:22.375Z,82.70
2018-09-21T23:00:56.680Z,82.70
2018-09-21T23:03:32.181Z,82.50
2018-09-21T23:06:07.647Z,83.40
2018-09-21T23:08:41.788Z,83.10
2018-09-21T23:11:16.832Z,83.00
2018-09-21T23:13:51.689Z,82.30
2018-09-21T23:16:26.126Z,81.70
2018-09-21T23:19:00.333Z,82.00
2018-09-21T23:21:35.184Z,81.70
2018-09-21T23:24:10.194Z,81.90
2018-09-21T23:26:44.727Z,82.50
2018-09-21T23:29:19.330Z,82.30
2018-09-21T23:31:54.122Z,82.70
2018-09-21T23:34:29.064Z,82.50
2018-09-21T23:37:03.929Z,82.30
2018-09-21T23:39:38.578Z,82.50
2018-09-21T23:42:13.200Z,82.40
2018-09-21T23:44:48.030Z,81.40
2018-09-21T23:47:23.263Z,81.80
2018-09-21T23:49:58.193Z,82.30
2018-09-21T23:52:33.417Z,82.40
2018-09-21T23:55:07.999Z,82.00
2018-09-21T23:57:42.861Z,83.00
